Time;durP1;ratioP1;P1;durP2;ratioP2;P2;SDS_P1;SDS_P2;PMS_P1;PMS_P2;Temp;Humidity;BMP_temperature;BMP_pressure;BME280_temperature;BME280_humidity;BME280_pressure;Samples;Min_cycle;Max_cycle;Signal;HPM_P1;HPM_P2
2021/06/29 00:01:42;;;;;;;0.10;0.10;;;;;;;18.77;84.07;98527.50;5208865;27;20379;-83
2021/06/29 00:05:12;;;;;;;0.10;0.10;;;;;;;18.53;84.47;98524.59;5199841;27;20394;-83
2021/06/29 00:08:36;;;;;;;0.20;0.10;;;;;;;18.60;84.79;98526.41;5107062;27;20408;-82
2021/06/29 00:11:43;;;;;;;0.10;0.10;;;;;;;18.49;85.42;98526.13;5203779;27;20403;-83
2021/06/29 00:15:14;;;;;;;0.10;0.10;;;;;;;18.29;85.94;98531.84;5116988;27;20490;-82
2021/06/29 00:18:16;;;;;;;0.10;0.10;;;;;;;18.19;86.03;98536.19;5112927;27;20408;-83
2021/06/29 00:21:35;;;;;;;0.10;0.10;;;;;;;18.11;86.28;98529.13;5201590;27;20406;-83
2021/06/29 00:24:53;;;;;;;0.10;0.10;;;;;;;18.06;86.37;98521.59;5160750;27;20405;-84
2021/06/29 00:28:22;;;;;;;0.10;0.10;;;;;;;18.29;85.40;98525.53;5185309;27;20403;-82
2021/06/29 00:30:58;;;;;;;0.10;0.10;;;;;;;18.08;86.18;98530.41;5088436;22;20044;-84
2021/06/29 00:33:55;;;;;;;0.10;0.10;;;;;;;17.95;86.83;98527.81;5023336;28;20107;-85
2021/06/29 00:36:45;;;;;;;0.10;0.10;;;;;;;17.90;86.84;98533.13;4982346;28;20146;-82
2021/06/29 00:39:34;;;;;;;0.10;0.10;;;;;;;17.89;86.78;98526.00;5010330;28;20098;-84
2021/06/29 00:43:00;;;;;;;0.80;0.10;;;;;;;17.87;86.90;98532.72;5186686;27;20408;-85
2021/06/29 00:45:36;;;;;;;0.10;0.10;;;;;;;17.88;87.04;98535.25;5124622;22;20044;-84
2021/06/29 00:48:25;;;;;;;0.10;0.10;;;;;;;17.95;86.75;98536.03;4994533;28;20138;-84
2021/06/29 00:51:48;;;;;;;0.10;0.10;;;;;;;17.92;87.51;98532.91;5195188;27;20525;-86
2021/06/29 00:55:13;;;;;;;0.10;0.10;;;;;;;17.89;87.37;98536.94;5213514;27;20410;-86
2021/06/29 00:58:02;;;;;;;0.10;0.10;;;;;;;17.87;87.44;98533.56;4941501;29;20115;-84
2021/06/29 01:01:25;;;;;;;0.13;0.10;;;;;;;17.90;87.60;98533.13;5197012;27;20401;-84
2021/06/29 01:04:35;;;;;;;0.10;0.10;;;;;;;18.03;86.88;98533.00;5203115;27;20403;-85
2021/06/29 01:07:14;;;;;;;0.10;0.10;;;;;;;18.13;86.85;98531.59;5080676;22;20053;-86
2021/06/29 01:10:31;;;;;;;0.03;0.03;;;;;;;18.07;86.96;98534.22;5126398;27;20409;-85
2021/06/29 01:13:55;;;;;;;0.10;0.10;;;;;;;18.10;86.29;98532.94;5118233;27;20419;-84
2021/06/29 01:16:58;;;;;;;0.10;0.10;;;;;;;18.13;86.76;98537.91;5064240;28;21903;-84
2021/06/29 01:20:23;;;;;;;0.10;0.10;;;;;;;18.22;86.11;98535.72;5209420;27;20640;-84
2021/06/29 01:23:03;;;;;;;0.10;0.10;;;;;;;18.22;86.01;98541.22;5127889;22;20049;-84
2021/06/29 01:26:30;;;;;;;0.10;0.10;;;;;;;18.28;85.87;98523.84;5136568;27;20402;-85
2021/06/29 01:33:18;;;;;;;0.10;0.10;;;;;;;18.26;85.96;98520.53;5147999;27;20455;-85
2021/06/29 01:36:54;;;;;;;0.10;0.10;;;;;;;18.17;85.70;98530.09;5143856;27;20416;-83
2021/06/29 01:40:26;;;;;;;0.10;0.10;;;;;;;18.20;86.00;98535.09;5152969;27;20475;-83
2021/06/29 01:43:56;;;;;;;0.10;0.10;;;;;;;18.18;84.58;98526.31;5188061;27;20415;-83
2021/06/29 01:46:36;;;;;;;0.10;0.10;;;;;;;18.17;85.96;98527.34;5165571;23;20048;-83
2021/06/29 01:50:15;;;;;;;0.10;0.10;;;;;;;18.30;84.42;98532.69;5204282;27;20462;-83
2021/06/29 01:52:54;;;;;;;0.10;0.10;;;;;;;18.26;83.99;98526.00;5094501;22;20044;-83
2021/06/29 01:55:28;;;;;;;0.20;0.10;;;;;;;18.26;84.34;98539.69;5091852;22;20087;-82
2021/06/29 01:58:52;;;;;;;0.10;0.10;;;;;;;18.20;85.10;98532.38;5137791;27;20395;-85
2021/06/29 02:01:46;;;;;;;0.10;0.10;;;;;;;18.38;84.28;98531.53;5028322;28;20286;-85
2021/06/29 02:15:41;;;;;;;0.10;0.10;;;;;;;18.26;84.03;98553.34;5141000;27;20356;-85
2021/06/29 02:18:12;;;;;;;0.10;0.10;;;;;;;18.36;84.51;98548.19;5037770;23;20033;-85
2021/06/29 02:20:48;;;;;;;0.10;0.10;;;;;;;18.31;84.06;98545.28;5022764;23;20062;-84
2021/06/29 02:23:39;;;;;;;0.10;0.10;;;;;;;18.28;84.55;98556.69;5016048;28;20567;-84
2021/06/29 02:26:47;;;;;;;0.10;0.10;;;;;;;18.23;85.41;98557.38;5176871;27;20365;-84
2021/06/29 02:29:34;;;;;;;0.10;0.10;;;;;;;18.22;85.43;98546.69;5061539;28;20068;-85
2021/06/29 02:33:00;;;;;;;0.10;0.10;;;;;;;18.32;85.18;98547.00;5142118;27;20463;-84
2021/06/29 02:35:35;;;;;;;0.10;0.10;;;;;;;18.30;84.63;98543.63;5059998;23;20062;-84
2021/06/29 02:39:13;;;;;;;0.10;0.10;;;;;;;18.30;84.70;98549.09;5206160;27;20459;-84
2021/06/29 02:42:06;;;;;;;0.10;0.10;;;;;;;18.32;84.57;98552.47;5007536;28;20120;-83
2021/06/29 02:44:42;;;;;;;0.10;0.10;;;;;;;18.26;84.69;98556.94;5109727;22;20097;-83
2021/06/29 02:48:09;;;;;;;0.10;0.10;;;;;;;18.40;84.71;98552.16;5192524;27;20400;-85
2021/06/29 02:51:28;;;;;;;0.10;0.10;;;;;;;18.40;84.61;98560.34;5203240;27;20458;-85
2021/06/29 02:54:02;;;;;;;0.10;0.10;;;;;;;18.45;84.49;98548.72;5152408;22;20164;-86
2021/06/29 02:57:20;;;;;;;0.10;0.10;;;;;;;18.40;84.31;98556.78;5129092;27;20497;-84
2021/06/29 02:59:54;;;;;;;0.10;0.10;;;;;;;18.36;84.99;98553.66;5074527;22;20144;-85
2021/06/29 03:02:47;;;;;;;0.10;0.10;;;;;;;18.41;84.40;98547.50;5039121;28;20140;-85
2021/06/29 03:05:20;;;;;;;0.10;0.10;;;;;;;18.43;84.92;98551.69;5070775;22;20057;-84
2021/06/29 03:07:53;;;;;;;0.10;0.10;;;;;;;18.38;84.80;98557.00;5056463;23;20065;-84
2021/06/29 03:11:27;;;;;;;0.13;0.13;;;;;;;18.46;84.88;98547.63;5201686;27;20410;-85
2021/06/29 03:14:16;;;;;;;0.10;0.10;;;;;;;18.42;84.74;98552.72;5055855;28;20087;-84
2021/06/29 03:27:47;;;;;;;0.10;0.10;;;;;;;18.47;84.62;98558.38;5396468;22;19506307;-84
2021/06/29 03:30:28;;;;;;;0.10;0.10;;;;;;;18.57;84.32;98552.34;6254477;22;20163;-85
2021/06/29 03:33:56;;;;;;;0.10;0.10;;;;;;;18.60;84.16;98570.22;5106658;27;20121;-86
2021/06/29 03:36:49;;;;;;;0.10;0.10;;;;;;;18.61;83.77;98558.19;5064079;28;20073;-85
2021/06/29 03:39:22;;;;;;;0.20;0.20;;;;;;;18.70;83.66;98562.31;5118909;23;20386;-87
2021/06/29 03:41:56;;;;;;;0.10;0.10;;;;;;;18.64;83.69;98565.94;5072332;22;20101;-84
2021/06/29 03:44:30;;;;;;;0.20;0.20;;;;;;;18.73;83.60;98564.63;5294644;23;20049;-85
2021/06/29 03:47:51;;;;;;;0.10;0.10;;;;;;;18.69;83.47;98566.94;5338675;22;20490;-85
2021/06/29 03:50:43;;;;;;;0.10;0.10;;;;;;;18.62;83.93;98582.63;5070758;28;20052;-84
2021/06/29 03:54:44;;;;;;;0.10;0.10;;;;;;;18.76;83.00;98581.41;6235745;22;21223;31
2021/06/29 03:57:53;;;;;;;0.10;0.10;;;;;;;18.68;83.07;98583.59;5292309;22;20415;-84
2021/06/29 04:00:42;;;;;;;0.13;0.13;;;;;;;18.68;83.29;98573.47;5029326;28;20053;-84
2021/06/29 04:03:15;;;;;;;0.13;0.13;;;;;;;18.66;83.39;98574.78;5085959;23;20025;-85
2021/06/29 04:16:48;;;;;;;0.10;0.10;;;;;;;18.60;83.58;98575.69;4988241;22;28076137;-86
2021/06/29 04:19:40;;;;;;;0.10;0.10;;;;;;;18.59;83.17;98590.44;6231349;23;20016;-84
2021/06/29 04:22:12;;;;;;;0.10;0.10;;;;;;;18.63;83.52;98580.72;6269358;22;20028;-85
2021/06/29 04:24:45;;;;;;;0.10;0.10;;;;;;;18.82;82.84;98579.66;6207802;22;20025;-84
2021/06/29 04:28:18;;;;;;;0.10;0.10;;;;;;;18.64;83.05;98582.38;5230506;22;20446;-85
2021/06/29 04:46:17;;;;;;;0.20;0.20;;;;;;;18.81;83.58;98588.94;5137366;27;20469;-85
2021/06/29 05:13:04;;;;;;;0.20;0.10;;;;;;;18.74;85.75;98571.75;5227072;22;20386;-86
2021/06/29 05:19:38;;;;;;;0.15;0.15;;;;;;;19.00;85.22;98576.88;5250501;22;20434;-87
2021/06/29 05:22:22;;;;;;;0.20;0.20;;;;;;;19.15;83.74;98578.34;5033965;23;20045;-85
2021/06/29 05:25:20;;;;;;;0.20;0.20;;;;;;;19.22;84.11;98585.41;5318876;23;20033;-87
2021/06/29 05:38:53;;;;;;;0.10;0.10;;;;;;;19.23;82.35;98591.72;4708426;22;33680726;-86
2021/06/29 05:42:59;;;;;;;0.10;0.10;;;;;;;19.25;81.91;98573.97;5177666;27;20449;-81
2021/06/29 05:46:37;;;;;;;0.10;0.10;;;;;;;19.38;80.75;98578.44;5345875;22;20450;-84
2021/06/29 05:52:35;;;;;;;0.20;0.20;;;;;;;19.65;79.78;98591.75;5706447;24;21233;-87
2021/06/29 05:55:26;;;;;;;0.20;0.20;;;;;;;19.92;78.74;98589.38;5235225;24;20049;-88
2021/06/29 06:09:05;;;;;;;0.20;0.20;;;;;;;20.29;76.60;98578.97;5351744;22;19811578;-84
2021/06/29 06:12:44;;;;;;;0.20;0.20;;;;;;;20.50;75.58;98579.47;5105873;27;20129;-86
2021/06/29 06:32:23;;;;;;;0.10;0.10;;;;;;;19.73;77.99;98586.75;6250270;22;20034;-85
2021/06/29 06:54:46;;;;;;;0.30;0.30;;;;;;;20.37;77.01;98600.59;6228086;22;20115;-85
2021/06/29 07:30:30;;;;;;;0.30;0.30;;;;;;;21.81;71.15;98618.00;6249560;22;20019;-87
2021/06/29 07:33:37;;;;;;;0.35;0.35;;;;;;;22.07;69.86;98616.50;6175117;22;20028;-82
2021/06/29 08:08:33;;;;;;;0.10;0.10;;;;;;;20.41;75.00;98631.97;6226668;22;19907;-86
2021/06/29 08:59:04;;;;;;;0.20;0.20;;;;;;;19.83;74.39;98660.22;6055314;22;5624461;-87
2021/06/29 09:01:41;;;;;;;0.10;0.10;;;;;;;19.85;74.27;98666.28;6191534;23;20032;-86
2021/06/29 09:17:19;;;;;;;0.10;0.10;;;;;;;19.52;74.90;98667.63;6231528;22;19908;-83
2021/06/29 09:20:32;;;;;;;0.20;0.20;;;;;;;19.69;74.32;98667.81;6142367;23;21116;-86
2021/06/29 09:26:48;;;;;;;0.30;0.30;;;;;;;20.45;71.86;98677.09;6173704;22;20041;-80
2021/06/29 09:44:38;;;;;;;0.20;0.20;;;;;;;20.82;69.41;98698.81;5605270;22;12336921;-80
2021/06/29 09:47:29;;;;;;;0.20;0.20;;;;;;;20.84;69.44;98682.94;5135956;27;20074;-84
2021/06/29 09:50:49;;;;;;;0.30;0.30;;;;;;;20.95;68.06;98693.09;5081805;28;20401;-85
2021/06/29 09:54:10;;;;;;;0.20;0.20;;;;;;;20.82;69.01;98693.34;4688435;27;11800039;-84
2021/06/29 09:56:49;;;;;;;0.20;0.20;;;;;;;20.95;68.85;98684.84;4931257;27;5431985;-84
2021/06/29 09:59:43;;;;;;;0.30;0.30;;;;;;;21.55;67.13;98685.50;5125133;27;20427;-84
2021/06/29 10:02:37;;;;;;;1.00;1.00;;;;;;;22.26;65.00;98686.75;5163849;27;20243;-83
2021/06/29 10:16:15;;;;;;;0.10;0.10;;;;;;;22.13;64.83;98670.56;5117729;27;20176;-83
2021/06/29 10:22:24;;;;;;;0.10;0.10;;;;;;;21.61;66.74;98681.75;5218486;22;20585;-83
2021/06/29 10:25:25;;;;;;;0.20;0.20;;;;;;;21.32;68.00;98691.91;5098803;27;20461;-83
2021/06/29 10:28:18;;;;;;;2.00;2.00;;;;;;;22.85;64.13;98681.59;5104548;27;20137;-85
2021/06/29 10:31:23;;;;;;;0.20;0.20;;;;;;;23.34;60.64;98687.19;5105666;27;20429;-83
2021/06/29 10:44:43;;;;;;;0.10;0.10;;;;;;;20.75;68.94;98678.06;5099306;28;20145;-83
2021/06/29 10:47:44;;;;;;;0.20;0.20;;;;;;;20.90;68.70;98703.13;5153513;27;20453;-82
2021/06/29 10:50:41;;;;;;;0.10;0.10;;;;;;;20.65;69.69;98676.75;5122447;27;20424;-84
2021/06/29 11:04:48;;;;;;;0.10;0.10;;;;;;;20.36;70.34;98705.97;5146952;27;20486;-83
2021/06/29 11:08:17;;;;;;;0.10;0.10;;;;;;;20.23;70.55;98695.25;5259897;23;20052;-83
2021/06/29 11:11:22;;;;;;;0.10;0.10;;;;;;;20.08;70.47;98708.59;5069759;28;20413;-84
2021/06/29 11:14:00;;;;;;;0.10;0.10;;;;;;;19.97;70.84;98702.84;5028891;23;20121;-83
2021/06/29 11:17:09;;;;;;;0.10;0.10;;;;;;;19.90;71.89;98704.84;5055074;28;20493;-82
2021/06/29 11:20:44;;;;;;;0.10;0.10;;;;;;;19.94;72.37;98708.78;5088304;28;20185;-83
2021/06/29 11:23:51;;;;;;;0.20;0.20;;;;;;;20.36;70.52;98705.13;5139201;27;20423;-83
2021/06/29 11:26:56;;;;;;;0.50;0.50;;;;;;;21.64;66.78;98711.50;5157355;27;20430;-86
2021/06/29 11:29:59;;;;;;;0.20;0.20;;;;;;;21.16;67.73;98709.97;5080062;28;20436;-83
2021/06/29 11:43:28;;;;;;;0.10;0.10;;;;;;;20.83;69.76;98711.47;4876696;27;5620209;-82
2021/06/29 11:46:54;;;;;;;0.20;0.20;;;;;;;20.77;69.96;98720.69;5111472;27;20420;-83
2021/06/29 11:49:43;;;;;;;0.30;0.30;;;;;;;21.45;67.46;98713.63;5086128;27;20881;-84
2021/06/29 11:52:35;;;;;;;0.13;0.13;;;;;;;20.94;69.23;98712.53;4862173;28;6493194;-84
2021/06/29 11:55:47;;;;;;;0.20;0.20;;;;;;;20.81;69.40;98708.16;5162187;27;20374;-83
2021/06/29 11:58:48;;;;;;;0.20;0.20;;;;;;;20.77;68.94;98706.97;5069062;27;20422;-81
2021/06/29 12:01:31;;;;;;;0.20;0.20;;;;;;;21.22;68.59;98709.03;5117158;27;20384;-83
2021/06/29 12:04:24;;;;;;;0.40;0.40;;;;;;;21.71;65.80;98694.88;5057431;27;20817;-82
2021/06/29 12:07:15;;;;;;;0.40;0.40;;;;;;;22.28;64.10;98701.13;5074635;27;20446;-83
2021/06/29 12:10:11;;;;;;;0.30;0.30;;;;;;;22.38;63.94;98695.78;5113549;27;20387;-83
2021/06/29 12:12:56;;;;;;;0.30;0.30;;;;;;;22.71;63.58;98699.59;5154709;27;20840;-83
2021/06/29 12:15:54;;;;;;;0.20;0.20;;;;;;;21.89;64.55;98692.72;5104525;27;19946;-83
2021/06/29 12:18:46;;;;;;;0.15;0.15;;;;;;;21.70;65.79;98702.28;5115452;27;20436;-86
2021/06/29 12:21:47;;;;;;;0.17;0.17;;;;;;;21.33;67.72;98710.94;5126109;27;20767;-83
2021/06/29 12:24:36;;;;;;;0.10;0.10;;;;;;;20.89;68.85;98716.03;5093279;28;20436;-83
2021/06/29 12:27:21;;;;;;;0.10;0.10;;;;;;;20.62;69.68;98709.34;5063148;27;20431;-84
2021/06/29 12:30:28;;;;;;;0.10;0.10;;;;;;;20.55;70.29;98709.50;5076190;28;20413;-82
2021/06/29 12:33:29;;;;;;;0.20;0.20;;;;;;;20.58;70.43;98713.66;5092357;28;20421;-83
2021/06/29 12:36:23;;;;;;;0.20;0.20;;;;;;;20.62;70.54;98709.34;5114052;27;20409;-83
2021/06/29 12:39:26;;;;;;;0.20;0.20;;;;;;;20.89;69.57;98715.19;5148734;27;20411;-82
2021/06/29 12:52:44;;;;;;;0.88;0.20;;;;;;;21.89;67.17;98708.41;5130619;27;20729;-85
2021/06/29 12:55:36;;;;;;;0.20;0.10;;;;;;;21.77;68.13;98713.97;5092976;27;20484;-84
2021/06/29 12:58:36;;;;;;;0.10;0.10;;;;;;;21.52;69.32;98710.75;5158821;27;20030;-84
2021/06/29 13:01:34;;;;;;;0.10;0.10;;;;;;;21.54;69.00;98705.84;5130850;27;20387;-83
2021/06/29 13:04:26;;;;;;;0.10;0.10;;;;;;;21.29;69.87;98715.22;5103095;27;20398;-80
2021/06/29 13:07:24;;;;;;;0.10;0.10;;;;;;;21.16;69.87;98720.97;5088714;27;20433;-83
2021/06/29 13:10:27;;;;;;;0.13;0.10;;;;;;;21.08;70.30;98715.88;5111071;27;20886;-82
2021/06/29 13:13:24;;;;;;;0.10;0.10;;;;;;;20.77;70.18;98728.94;5122298;27;20865;-82
2021/06/29 13:16:20;;;;;;;0.10;0.10;;;;;;;20.78;71.42;98724.28;5132604;27;20359;-86
2021/06/29 13:19:20;;;;;;;0.10;0.10;;;;;;;20.47;72.69;98729.84;5122995;27;20389;-83
2021/06/29 13:22:09;;;;;;;0.10;0.10;;;;;;;20.39;73.61;98729.38;5126903;27;20484;-83
2021/06/29 13:24:54;;;;;;;0.10;0.10;;;;;;;20.27;72.08;98718.38;5106819;27;20433;-84
2021/06/29 13:27:49;;;;;;;0.10;0.10;;;;;;;20.39;71.13;98726.63;5084158;28;20436;-82
2021/06/29 13:30:34;;;;;;;0.10;0.10;;;;;;;20.14;72.07;98724.09;5092108;27;20401;-83
2021/06/29 13:33:17;;;;;;;0.10;0.10;;;;;;;20.11;72.88;98719.94;5109084;27;20404;-83
2021/06/29 13:36:15;;;;;;;0.10;0.10;;;;;;;20.29;71.39;98721.72;5060183;28;20406;-84
2021/06/29 13:39:30;;;;;;;0.17;0.17;;;;;;;20.62;71.12;98734.06;5103061;27;20394;-83
2021/06/29 13:42:21;;;;;;;0.20;0.20;;;;;;;20.82;70.44;98741.97;5140121;27;20403;-84
2021/06/29 13:45:14;;;;;;;0.20;0.20;;;;;;;20.92;69.17;98737.53;5133737;27;20414;-83
2021/06/29 13:48:07;;;;;;;0.20;0.20;;;;;;;21.13;69.24;98737.94;5088888;27;20769;-83
2021/06/29 13:50:58;;;;;;;0.20;0.20;;;;;;;21.19;68.53;98742.50;5090136;27;20407;-83
2021/06/29 13:53:54;;;;;;;0.20;0.20;;;;;;;21.25;67.60;98730.53;5133785;27;20363;-84
2021/06/29 13:56:49;;;;;;;0.10;0.10;;;;;;;21.22;67.66;98742.00;5083707;28;20412;-83
2021/06/29 13:59:37;;;;;;;0.10;0.10;;;;;;;21.23;66.81;98734.59;5115013;27;20435;-84
2021/06/29 14:02:38;;;;;;;0.13;0.13;;;;;;;21.19;67.16;98748.00;5030609;28;20398;-85
2021/06/29 14:05:38;;;;;;;0.20;0.20;;;;;;;21.33;66.52;98732.06;5068074;28;20418;-86
2021/06/29 14:08:36;;;;;;;0.20;0.20;;;;;;;21.36;65.36;98729.69;5085213;28;20411;-83
2021/06/29 14:11:24;;;;;;;0.10;0.10;;;;;;;21.33;65.57;98743.06;5153521;27;20169;-84
2021/06/29 14:14:25;;;;;;;0.10;0.10;;;;;;;21.18;65.50;98736.16;5104951;28;20421;-81
2021/06/29 14:17:36;;;;;;;0.20;0.20;;;;;;;21.27;65.65;98733.84;5124053;27;20385;-84
2021/06/29 14:20:38;;;;;;;0.10;0.10;;;;;;;21.45;65.81;98740.31;5102758;28;20414;-84
2021/06/29 14:23:31;;;;;;;0.10;0.10;;;;;;;21.20;65.86;98734.00;5083404;27;20417;-85
2021/06/29 14:26:24;;;;;;;0.20;0.20;;;;;;;21.19;66.20;98726.00;5128750;27;20384;-83
2021/06/29 14:29:34;;;;;;;0.10;0.10;;;;;;;21.17;66.55;98728.13;5124249;22;20133;-82
2021/06/29 14:32:45;;;;;;;0.10;0.10;;;;;;;21.18;66.48;98708.69;5051203;28;20458;-82
2021/06/29 14:36:01;;;;;;;0.10;0.10;;;;;;;21.25;65.46;98711.28;5133468;27;20421;-83
2021/06/29 14:39:04;;;;;;;0.20;0.20;;;;;;;21.18;66.73;98718.84;5074213;28;20432;-85
2021/06/29 14:41:57;;;;;;;0.10;0.10;;;;;;;21.06;66.92;98715.25;5090667;27;20407;-84
2021/06/29 14:44:37;;;;;;;0.20;0.20;;;;;;;21.04;67.38;98722.94;4859721;27;6793471;-85
2021/06/29 14:47:34;;;;;;;0.10;0.10;;;;;;;21.15;66.97;98716.56;5107571;27;20421;-85
2021/06/29 14:50:29;;;;;;;0.20;0.20;;;;;;;21.28;66.39;98720.94;5098259;27;20468;-84
2021/06/29 14:53:23;;;;;;;0.10;0.10;;;;;;;21.03;66.85;98716.59;5168950;27;20431;-84
2021/06/29 14:56:07;;;;;;;0.10;0.10;;;;;;;20.83;67.54;98705.97;5113432;27;20420;-84
2021/06/29 14:59:10;;;;;;;0.10;0.10;;;;;;;20.80;67.54;98706.47;5112332;27;20415;-83
2021/06/29 15:02:12;;;;;;;0.10;0.10;;;;;;;20.73;68.03;98713.16;5112152;27;20171;-82
2021/06/29 15:04:59;;;;;;;0.10;0.10;;;;;;;20.75;67.73;98714.59;5102094;28;20404;-82
2021/06/29 15:07:44;;;;;;;0.10;0.10;;;;;;;20.78;68.02;98713.28;5119820;27;20868;-85
2021/06/29 15:10:42;;;;;;;0.10;0.10;;;;;;;20.77;68.05;98709.72;5082232;28;20391;-82
2021/06/29 15:13:32;;;;;;;0.10;0.10;;;;;;;20.78;68.26;98708.63;5138794;27;20385;-84
2021/06/29 15:16:22;;;;;;;0.10;0.10;;;;;;;20.87;68.27;98701.69;4941185;27;4351280;-83
2021/06/29 15:19:16;;;;;;;0.10;0.10;;;;;;;20.94;67.27;98707.03;5108658;27;20809;-84
2021/06/29 15:22:17;;;;;;;0.10;0.10;;;;;;;20.80;66.74;98714.69;5103249;27;20548;-84
2021/06/29 15:25:12;;;;;;;0.10;0.10;;;;;;;20.75;67.28;98709.09;5104368;27;20395;-84
2021/06/29 15:28:22;;;;;;;0.10;0.10;;;;;;;20.44;68.02;98713.88;5118906;27;20399;-84
2021/06/29 15:31:22;;;;;;;0.10;0.10;;;;;;;20.42;68.16;98713.25;5120658;27;20394;-84
2021/06/29 15:34:23;;;;;;;0.10;0.10;;;;;;;20.39;68.39;98710.16;5077555;28;20421;-82
2021/06/29 15:37:25;;;;;;;0.10;0.10;;;;;;;20.30;68.81;98711.59;5134581;27;20408;-83
2021/06/29 15:40:28;;;;;;;0.10;0.10;;;;;;;20.15;69.40;98703.81;5118278;27;20961;-82
2021/06/29 15:43:10;;;;;;;0.10;0.10;;;;;;;19.83;70.27;98695.88;5143433;22;20437;-83
2021/06/29 15:46:05;;;;;;;0.10;0.10;;;;;;;19.77;70.79;98706.94;5089121;27;20836;-82
2021/06/29 15:49:24;;;;;;;0.10;0.10;;;;;;;19.70;71.28;98709.78;5093900;27;20396;-83
2021/06/29 15:52:37;;;;;;;0.17;0.17;;;;;;;19.39;72.17;98717.16;5133711;27;20819;-84
2021/06/29 16:06:00;;;;;;;0.10;0.10;;;;;;;18.99;74.07;98705.84;5104452;28;20372;-82
2021/06/29 16:08:59;;;;;;;0.10;0.10;;;;;;;19.02;74.51;98716.34;5113021;27;20401;-83
2021/06/29 16:12:10;;;;;;;0.10;0.10;;;;;;;18.84;75.09;98719.94;5078783;28;20842;-83
2021/06/29 16:15:19;;;;;;;0.10;0.10;;;;;;;18.87;75.27;98730.44;5119443;27;20405;-82
2021/06/29 16:18:19;;;;;;;0.35;0.10;;;;;;;18.93;75.01;98726.75;5102342;27;20448;-82
2021/06/29 16:21:18;;;;;;;0.10;0.10;;;;;;;18.86;75.50;98728.72;5099896;28;20404;-83
2021/06/29 16:24:09;;;;;;;0.10;0.10;;;;;;;18.84;74.71;98722.66;4957563;27;4616028;-81
2021/06/29 16:27:03;;;;;;;0.10;0.10;;;;;;;19.14;74.31;98730.94;5135760;27;20426;-82
2021/06/29 16:30:05;;;;;;;0.10;0.10;;;;;;;19.08;74.55;98731.84;5087823;27;20422;-82
2021/06/29 16:33:05;;;;;;;0.10;0.10;;;;;;;19.26;73.69;98728.28;5083299;27;20407;-82
2021/06/29 16:36:18;;;;;;;0.10;0.10;;;;;;;19.34;73.71;98741.66;5133868;27;20400;-81
2021/06/29 16:39:13;;;;;;;0.10;0.10;;;;;;;19.01;74.47;98737.44;5096089;27;20395;-82
2021/06/29 16:42:12;;;;;;;0.10;0.10;;;;;;;18.98;74.46;98748.84;5083099;27;20405;-82
2021/06/29 16:55:32;;;;;;;0.13;0.10;;;;;;;18.82;74.14;98743.94;5141073;27;20358;-84
2021/06/29 16:58:36;;;;;;;0.10;0.10;;;;;;;18.88;73.76;98743.06;5091853;27;20409;-83
2021/06/29 17:01:45;;;;;;;0.10;0.10;;;;;;;18.99;73.47;98750.50;5153242;27;20373;-84
2021/06/29 17:05:09;;;;;;;0.10;0.10;;;;;;;18.97;73.35;98757.28;5100890;27;20407;-84
2021/06/29 17:08:29;;;;;;;0.10;0.10;;;;;;;18.81;73.41;98760.63;5146108;27;20525;-84
2021/06/29 17:11:20;;;;;;;0.10;0.10;;;;;;;18.83;73.21;98755.75;5095555;27;20408;-84
2021/06/29 17:14:10;;;;;;;0.10;0.10;;;;;;;18.86;72.78;98758.88;5131653;27;20388;-82
2021/06/29 17:17:22;;;;;;;0.10;0.10;;;;;;;18.84;73.33;98752.78;5068635;28;20451;-83
2021/06/29 17:20:20;;;;;;;0.10;0.10;;;;;;;18.86;73.15;98744.34;5173088;27;20355;-81
2021/06/29 17:23:13;;;;;;;0.10;0.10;;;;;;;18.90;72.79;98746.38;5122950;27;20445;-84
2021/06/29 17:26:15;;;;;;;0.10;0.10;;;;;;;18.78;73.76;98738.09;5111157;22;20401;-83
2021/06/29 17:29:06;;;;;;;0.10;0.10;;;;;;;18.69;73.96;98742.16;5156527;27;20127;-84
2021/06/29 17:32:11;;;;;;;0.10;0.10;;;;;;;18.65;74.37;98742.81;5082081;27;20432;-84
2021/06/29 17:35:28;;;;;;;0.10;0.10;;;;;;;18.55;74.73;98735.97;5055022;28;20449;-83
2021/06/29 17:38:24;;;;;;;0.10;0.10;;;;;;;18.54;74.46;98742.53;5097932;27;20422;-83
2021/06/29 17:41:17;;;;;;;0.10;0.10;;;;;;;18.61;74.56;98747.94;5099090;27;20431;-83
2021/06/29 17:44:14;;;;;;;0.10;0.10;;;;;;;18.44;74.82;98755.88;5079479;28;20409;-81
2021/06/29 17:47:06;;;;;;;0.10;0.10;;;;;;;18.41;74.93;98756.31;5111088;27;20407;-83
2021/06/29 17:50:05;;;;;;;0.10;0.10;;;;;;;18.29;75.36;98744.44;5132549;27;20421;-82
2021/06/29 17:53:00;;;;;;;0.10;0.10;;;;;;;18.28;75.82;98738.13;5091517;27;20134;-82
2021/06/29 17:55:53;;;;;;;0.10;0.10;;;;;;;18.28;75.08;98753.69;5140758;27;20401;-82
2021/06/29 17:58:48;;;;;;;0.10;0.10;;;;;;;18.26;75.54;98745.72;5055589;28;20483;-83
2021/06/29 18:01:52;;;;;;;0.10;0.10;;;;;;;18.36;75.11;98744.38;5167366;27;20406;-82
2021/06/29 18:04:38;;;;;;;0.10;0.10;;;;;;;18.33;75.11;98748.41;5104726;27;20406;-84
2021/06/29 18:07:38;;;;;;;0.10;0.10;;;;;;;18.23;75.49;98739.84;5123736;27;20427;-84
2021/06/29 18:11:17;;;;;;;0.10;0.10;;;;;;;18.28;75.62;98731.78;5099738;27;20472;-83
2021/06/29 18:14:31;;;;;;;0.10;0.10;;;;;;;18.29;76.02;98745.28;5127643;27;20896;-83
2021/06/29 18:17:28;;;;;;;0.10;0.10;;;;;;;18.25;75.73;98745.94;5094600;28;20412;-83
2021/06/29 18:20:29;;;;;;;0.10;0.10;;;;;;;18.15;76.33;98740.97;5123272;27;20921;-83
2021/06/29 18:23:22;;;;;;;0.10;0.10;;;;;;;18.15;76.37;98754.66;5078172;28;20427;-83
2021/06/29 18:26:15;;;;;;;0.10;0.10;;;;;;;18.13;76.79;98744.97;5080673;27;20432;-84
2021/06/29 18:29:20;;;;;;;0.10;0.10;;;;;;;18.03;77.26;98746.31;4994269;28;20079;-83
2021/06/29 18:43:21;;;;;;;0.10;0.10;;;;;;;17.80;78.05;98752.34;5114269;27;20340;-85
2021/06/29 18:46:25;;;;;;;0.10;0.10;;;;;;;17.71;77.66;98736.41;5116919;27;20411;-82
2021/06/29 18:49:33;;;;;;;0.10;0.10;;;;;;;17.67;77.69;98736.00;5115100;27;20475;-82
2021/06/29 18:52:39;;;;;;;0.10;0.10;;;;;;;17.70;77.11;98745.69;5108425;27;20421;-82
2021/06/29 18:55:49;;;;;;;0.10;0.10;;;;;;;17.65;77.47;98750.94;5085534;27;20412;-81
2021/06/29 18:58:43;;;;;;;0.10;0.10;;;;;;;17.68;77.29;98747.78;5056683;27;20421;-80
2021/06/29 19:01:33;;;;;;;0.10;0.10;;;;;;;17.51;77.36;98748.28;5074223;27;20432;-82
2021/06/29 19:14:50;;;;;;;0.10;0.10;;;;;;;17.29;78.67;98776.97;5106225;28;20458;-82
2021/06/29 19:17:43;;;;;;;0.10;0.10;;;;;;;17.22;79.35;98770.69;5105362;27;20434;-83
2021/06/29 19:20:33;;;;;;;0.10;0.10;;;;;;;17.22;79.69;98770.69;5119001;27;20420;-81
2021/06/29 19:23:31;;;;;;;0.10;0.10;;;;;;;17.21;79.55;98772.59;5111270;27;20411;-82
2021/06/29 19:26:31;;;;;;;0.10;0.10;;;;;;;17.14;79.14;98762.75;5101567;28;20417;-83
2021/06/29 19:29:33;;;;;;;0.10;0.10;;;;;;;17.08;79.62;98770.75;5076772;27;20464;-81
2021/06/29 19:32:15;;;;;;;0.10;0.10;;;;;;;17.11;78.53;98767.59;5062333;28;21700;-82
2021/06/29 19:34:56;;;;;;;0.10;0.10;;;;;;;17.07;78.54;98760.84;5115819;27;20707;-81
2021/06/29 19:37:44;;;;;;;0.10;0.10;;;;;;;17.10;78.09;98756.88;5122348;27;20146;-82
2021/06/29 19:40:27;;;;;;;0.10;0.10;;;;;;;17.03;77.32;98743.22;5158706;27;20416;-82
2021/06/29 19:43:17;;;;;;;0.10;0.10;;;;;;;17.05;77.06;98759.41;5106089;27;20416;-82
2021/06/29 19:45:59;;;;;;;0.10;0.10;;;;;;;16.93;77.22;98756.53;5086783;27;20408;-82
2021/06/29 19:48:44;;;;;;;0.10;0.10;;;;;;;16.90;77.26;98765.13;5053660;28;20426;-81
2021/06/29 19:51:33;;;;;;;0.20;0.10;;;;;;;16.85;76.98;98759.47;5118016;27;20407;-82
2021/06/29 19:54:16;;;;;;;0.10;0.10;;;;;;;16.77;77.10;98762.41;5066929;28;20132;-82
2021/06/29 19:57:17;;;;;;;0.10;0.10;;;;;;;16.67;76.84;98756.53;5103311;27;20352;-82
2021/06/29 20:10:46;;;;;;;0.10;0.10;;;;;;;16.46;77.70;98769.38;5104809;27;20363;-83
2021/06/29 20:13:38;;;;;;;0.10;0.10;;;;;;;16.42;77.85;98759.94;5073026;27;20432;-82
2021/06/29 20:16:18;;;;;;;0.10;0.10;;;;;;;16.31;77.37;98747.75;5110015;27;20406;-82
2021/06/29 20:19:07;;;;;;;0.10;0.10;;;;;;;16.25;77.27;98745.88;5106212;27;20605;-83
2021/06/29 20:21:52;;;;;;;0.10;0.10;;;;;;;16.27;76.88;98753.81;5093254;27;20386;-82
2021/06/29 20:24:42;;;;;;;0.10;0.10;;;;;;;16.24;76.32;98746.09;5086727;28;20726;-81
2021/06/29 20:27:21;;;;;;;0.10;0.10;;;;;;;16.21;75.90;98730.97;5093400;27;20184;-81
2021/06/29 20:30:10;;;;;;;0.10;0.10;;;;;;;16.18;75.76;98746.91;5161969;27;20187;-82
2021/06/29 20:32:57;;;;;;;0.10;0.10;;;;;;;16.10;75.38;98737.91;5047420;28;20430;-82